sensor_id;sensor_type;location;lat;lon;timestamp;temperature;humidity
36424;DHT22;22458;45.328;9.514;2023-06-05T00:02:02;21.30;90.90
36424;DHT22;22458;45.328;9.514;2023-06-05T00:04:28;21.30;90.90
36424;DHT22;22458;45.328;9.514;2023-06-05T00:06:54;21.30;90.90
36424;DHT22;22458;45.328;9.514;2023-06-05T00:09:20;21.40;90.90
36424;DHT22;22458;45.328;9.514;2023-06-05T00:11:46;21.40;90.90
36424;DHT22;22458;45.328;9.514;2023-06-05T00:14:11;21.40;90.80
36424;DHT22;22458;45.328;9.514;2023-06-05T00:16:37;21.40;90.90
36424;DHT22;22458;45.328;9.514;2023-06-05T00:19:03;21.40;90.90
36424;DHT22;22458;45.328;9.514;2023-06-05T00:21:29;21.40;90.80
36424;DHT22;22458;45.328;9.514;2023-06-05T00:23:55;21.40;90.90
36424;DHT22;22458;45.328;9.514;2023-06-05T00:26:21;21.30;90.80
36424;DHT22;22458;45.328;9.514;2023-06-05T00:28:48;21.40;90.90
36424;DHT22;22458;45.328;9.514;2023-06-05T00:31:14;21.40;90.90
36424;DHT22;22458;45.328;9.514;2023-06-05T00:33:40;21.40;90.90
36424;DHT22;22458;45.328;9.514;2023-06-05T00:36:06;21.40;90.90
36424;DHT22;22458;45.328;9.514;2023-06-05T00:38:32;21.40;90.90
36424;DHT22;22458;45.328;9.514;2023-06-05T00:40:58;21.40;90.80
36424;DHT22;22458;45.328;9.514;2023-06-05T00:43:24;21.40;90.90
36424;DHT22;22458;45.328;9.514;2023-06-05T00:45:54;21.40;90.90
36424;DHT22;22458;45.328;9.514;2023-06-05T00:48:22;21.40;91.00
36424;DHT22;22458;45.328;9.514;2023-06-05T00:50:48;21.40;90.90
36424;DHT22;22458;45.328;9.514;2023-06-05T00:53:14;21.40;91.00
36424;DHT22;22458;45.328;9.514;2023-06-05T00:55:40;21.40;91.10
36424;DHT22;22458;45.328;9.514;2023-06-05T00:58:07;21.20;91.30
36424;DHT22;22458;45.328;9.514;2023-06-05T01:00:34;21.20;91.50
36424;DHT22;22458;45.328;9.514;2023-06-05T01:02:59;21.10;91.60
36424;DHT22;22458;45.328;9.514;2023-06-05T01:05:25;21.20;91.60
36424;DHT22;22458;45.328;9.514;2023-06-05T01:07:52;21.20;91.60
36424;DHT22;22458;45.328;9.514;2023-06-05T01:10:18;21.10;91.60
36424;DHT22;22458;45.328;9.514;2023-06-05T01:13:18;21.10;91.70
36424;DHT22;22458;45.328;9.514;2023-06-05T01:15:47;21.00;91.80
36424;DHT22;22458;45.328;9.514;2023-06-05T01:18:13;20.90;91.90
36424;DHT22;22458;45.328;9.514;2023-06-05T01:20:40;20.90;92.00
36424;DHT22;22458;45.328;9.514;2023-06-05T01:23:10;20.90;92.00
36424;DHT22;22458;45.328;9.514;2023-06-05T01:25:36;21.00;92.00
36424;DHT22;22458;45.328;9.514;2023-06-05T01:31:01;21.00;91.80
36424;DHT22;22458;45.328;9.514;2023-06-05T01:33:35;21.10;91.80
36424;DHT22;22458;45.328;9.514;2023-06-05T01:36:11;21.10;91.80
36424;DHT22;22458;45.328;9.514;2023-06-05T01:38:40;21.00;91.80
36424;DHT22;22458;45.328;9.514;2023-06-05T01:41:08;21.00;91.90
36424;DHT22;22458;45.328;9.514;2023-06-05T01:43:36;20.80;92.10
36424;DHT22;22458;45.328;9.514;2023-06-05T01:46:05;20.70;92.10
36424;DHT22;22458;45.328;9.514;2023-06-05T01:48:33;20.60;92.50
36424;DHT22;22458;45.328;9.514;2023-06-05T01:51:01;20.70;92.50
36424;DHT22;22458;45.328;9.514;2023-06-05T01:53:29;20.70;92.40
36424;DHT22;22458;45.328;9.514;2023-06-05T01:55:55;20.80;92.30
36424;DHT22;22458;45.328;9.514;2023-06-05T01:58:24;20.90;92.30
36424;DHT22;22458;45.328;9.514;2023-06-05T02:00:50;21.00;92.20
36424;DHT22;22458;45.328;9.514;2023-06-05T02:03:18;21.00;92.10
36424;DHT22;22458;45.328;9.514;2023-06-05T02:05:44;21.10;92.10
36424;DHT22;22458;45.328;9.514;2023-06-05T02:08:10;21.10;92.00
36424;DHT22;22458;45.328;9.514;2023-06-05T02:10:39;21.10;92.00
36424;DHT22;22458;45.328;9.514;2023-06-05T02:13:12;21.10;92.00
36424;DHT22;22458;45.328;9.514;2023-06-05T02:15:38;21.10;92.00
36424;DHT22;22458;45.328;9.514;2023-06-05T02:18:04;21.10;92.00
36424;DHT22;22458;45.328;9.514;2023-06-05T02:20:34;21.10;91.90
36424;DHT22;22458;45.328;9.514;2023-06-05T02:23:02;21.10;92.00
36424;DHT22;22458;45.328;9.514;2023-06-05T02:25:30;21.10;92.10
36424;DHT22;22458;45.328;9.514;2023-06-05T02:27:56;21.10;92.10
36424;DHT22;22458;45.328;9.514;2023-06-05T02:30:22;21.10;92.10
36424;DHT22;22458;45.328;9.514;2023-06-05T02:32:49;21.10;92.10
36424;DHT22;22458;45.328;9.514;2023-06-05T02:35:23;21.10;92.10
36424;DHT22;22458;45.328;9.514;2023-06-05T02:37:50;21.10;92.10
36424;DHT22;22458;45.328;9.514;2023-06-05T02:40:16;21.10;92.10
36424;DHT22;22458;45.328;9.514;2023-06-05T02:42:42;21.20;92.00
36424;DHT22;22458;45.328;9.514;2023-06-05T02:45:08;21.20;91.90
36424;DHT22;22458;45.328;9.514;2023-06-05T02:47:34;21.10;91.90
36424;DHT22;22458;45.328;9.514;2023-06-05T02:50:01;21.20;91.90
36424;DHT22;22458;45.328;9.514;2023-06-05T02:52:31;21.20;91.90
36424;DHT22;22458;45.328;9.514;2023-06-05T02:55:04;21.20;91.90
36424;DHT22;22458;45.328;9.514;2023-06-05T02:57:31;21.20;91.90
36424;DHT22;22458;45.328;9.514;2023-06-05T03:00:00;21.20;91.90
36424;DHT22;22458;45.328;9.514;2023-06-05T03:02:36;21.20;92.00
36424;DHT22;22458;45.328;9.514;2023-06-05T03:05:04;21.10;92.00
36424;DHT22;22458;45.328;9.514;2023-06-05T03:07:31;21.10;92.10
36424;DHT22;22458;45.328;9.514;2023-06-05T03:10:01;21.10;92.00
36424;DHT22;22458;45.328;9.514;2023-06-05T03:12:28;21.20;92.00
36424;DHT22;22458;45.328;9.514;2023-06-05T03:14:54;21.20;91.90
36424;DHT22;22458;45.328;9.514;2023-06-05T03:17:20;21.20;91.90
36424;DHT22;22458;45.328;9.514;2023-06-05T03:19:47;21.20;91.90
36424;DHT22;22458;45.328;9.514;2023-06-05T03:22:12;21.10;92.00
36424;DHT22;22458;45.328;9.514;2023-06-05T03:24:39;21.10;92.10
36424;DHT22;22458;45.328;9.514;2023-06-05T03:27:07;21.10;92.10
36424;DHT22;22458;45.328;9.514;2023-06-05T03:29:34;21.20;92.10
36424;DHT22;22458;45.328;9.514;2023-06-05T03:32:00;21.20;92.10
36424;DHT22;22458;45.328;9.514;2023-06-05T03:34:26;21.20;92.00
36424;DHT22;22458;45.328;9.514;2023-06-05T03:36:55;21.20;92.00
36424;DHT22;22458;45.328;9.514;2023-06-05T03:39:25;21.20;91.90
36424;DHT22;22458;45.328;9.514;2023-06-05T03:41:51;21.20;91.90
36424;DHT22;22458;45.328;9.514;2023-06-05T03:44:17;21.20;91.90
36424;DHT22;22458;45.328;9.514;2023-06-05T03:46:43;21.20;91.90
36424;DHT22;22458;45.328;9.514;2023-06-05T03:49:10;21.30;91.90
36424;DHT22;22458;45.328;9.514;2023-06-05T03:51:37;21.30;91.80
36424;DHT22;22458;45.328;9.514;2023-06-05T03:54:03;21.30;91.80
36424;DHT22;22458;45.328;9.514;2023-06-05T03:56:30;21.30;91.80
36424;DHT22;22458;45.328;9.514;2023-06-05T03:59:04;21.30;91.70
36424;DHT22;22458;45.328;9.514;2023-06-05T04:01:45;21.30;91.70
36424;DHT22;22458;45.328;9.514;2023-06-05T04:04:11;21.30;91.80
36424;DHT22;22458;45.328;9.514;2023-06-05T04:06:37;21.30;91.80
36424;DHT22;22458;45.328;9.514;2023-06-05T04:09:04;21.30;91.90
36424;DHT22;22458;45.328;9.514;2023-06-05T04:11:42;21.30;91.90
36424;DHT22;22458;45.328;9.514;2023-06-05T04:14:10;21.30;92.00
36424;DHT22;22458;45.328;9.514;2023-06-05T04:16:37;21.30;92.00
36424;DHT22;22458;45.328;9.514;2023-06-05T04:19:10;21.30;92.10
36424;DHT22;22458;45.328;9.514;2023-06-05T04:21:38;21.30;92.00
36424;DHT22;22458;45.328;9.514;2023-06-05T04:24:06;21.30;92.00
36424;DHT22;22458;45.328;9.514;2023-06-05T04:26:39;21.30;92.00
36424;DHT22;22458;45.328;9.514;2023-06-05T04:29:07;21.30;92.00
36424;DHT22;22458;45.328;9.514;2023-06-05T04:31:41;21.40;92.10
36424;DHT22;22458;45.328;9.514;2023-06-05T04:34:07;21.40;92.40
36424;DHT22;22458;45.328;9.514;2023-06-05T04:36:34;21.40;92.10
36424;DHT22;22458;45.328;9.514;2023-06-05T04:39:00;21.50;92.20
36424;DHT22;22458;45.328;9.514;2023-06-05T04:41:27;21.50;92.30
36424;DHT22;22458;45.328;9.514;2023-06-05T04:43:55;21.40;92.20
36424;DHT22;22458;45.328;9.514;2023-06-05T04:46:23;21.50;92.30
36424;DHT22;22458;45.328;9.514;2023-06-05T04:48:49;21.50;92.30
36424;DHT22;22458;45.328;9.514;2023-06-05T04:51:16;21.50;92.30
36424;DHT22;22458;45.328;9.514;2023-06-05T04:53:42;21.60;92.30
36424;DHT22;22458;45.328;9.514;2023-06-05T04:56:09;21.60;92.30
36424;DHT22;22458;45.328;9.514;2023-06-05T04:58:35;21.60;92.30
36424;DHT22;22458;45.328;9.514;2023-06-05T05:01:01;21.50;92.30
36424;DHT22;22458;45.328;9.514;2023-06-05T05:03:32;21.50;92.30
36424;DHT22;22458;45.328;9.514;2023-06-05T05:05:58;21.50;92.30
36424;DHT22;22458;45.328;9.514;2023-06-05T05:08:25;21.50;92.30
36424;DHT22;22458;45.328;9.514;2023-06-05T05:10:51;21.60;92.30
36424;DHT22;22458;45.328;9.514;2023-06-05T05:13:17;21.60;92.30
36424;DHT22;22458;45.328;9.514;2023-06-05T05:15:43;21.60;92.30
36424;DHT22;22458;45.328;9.514;2023-06-05T05:18:09;21.60;92.30
36424;DHT22;22458;45.328;9.514;2023-06-05T05:20:35;21.70;92.30
36424;DHT22;22458;45.328;9.514;2023-06-05T05:23:00;21.70;92.50
36424;DHT22;22458;45.328;9.514;2023-06-05T05:25:26;21.60;92.20
36424;DHT22;22458;45.328;9.514;2023-06-05T05:27:53;21.70;92.20
36424;DHT22;22458;45.328;9.514;2023-06-05T05:30:19;21.60;92.10
36424;DHT22;22458;45.328;9.514;2023-06-05T05:32:44;21.60;92.20
36424;DHT22;22458;45.328;9.514;2023-06-05T05:35:12;21.60;92.20
36424;DHT22;22458;45.328;9.514;2023-06-05T05:37:37;21.70;92.20
36424;DHT22;22458;45.328;9.514;2023-06-05T05:40:03;21.70;92.50
36424;DHT22;22458;45.328;9.514;2023-06-05T05:42:30;21.70;92.30
36424;DHT22;22458;45.328;9.514;2023-06-05T05:44:56;21.70;92.30
36424;DHT22;22458;45.328;9.514;2023-06-05T05:47:22;21.80;92.30
36424;DHT22;22458;45.328;9.514;2023-06-05T05:49:47;21.80;92.30
36424;DHT22;22458;45.328;9.514;2023-06-05T05:52:13;21.80;92.30
36424;DHT22;22458;45.328;9.514;2023-06-05T05:54:39;21.90;92.20
36424;DHT22;22458;45.328;9.514;2023-06-05T05:57:05;21.90;92.20
36424;DHT22;22458;45.328;9.514;2023-06-05T05:59:31;22.00;92.00
36424;DHT22;22458;45.328;9.514;2023-06-05T06:01:56;22.00;92.00
36424;DHT22;22458;45.328;9.514;2023-06-05T06:04:24;22.00;92.00
36424;DHT22;22458;45.328;9.514;2023-06-05T06:06:51;22.00;92.00
36424;DHT22;22458;45.328;9.514;2023-06-05T06:09:18;22.00;91.90
36424;DHT22;22458;45.328;9.514;2023-06-05T06:11:44;21.90;91.90
36424;DHT22;22458;45.328;9.514;2023-06-05T06:14:10;21.90;92.00
36424;DHT22;22458;45.328;9.514;2023-06-05T06:16:37;22.00;91.90
36424;DHT22;22458;45.328;9.514;2023-06-05T06:19:03;22.00;91.90
36424;DHT22;22458;45.328;9.514;2023-06-05T06:21:30;22.00;92.00
36424;DHT22;22458;45.328;9.514;2023-06-05T06:23:56;22.00;91.70
36424;DHT22;22458;45.328;9.514;2023-06-05T06:26:22;22.00;91.60
36424;DHT22;22458;45.328;9.514;2023-06-05T06:28:48;22.00;91.60
36424;DHT22;22458;45.328;9.514;2023-06-05T06:31:14;22.00;91.60
36424;DHT22;22458;45.328;9.514;2023-06-05T06:33:40;22.00;91.60
36424;DHT22;22458;45.328;9.514;2023-06-05T06:36:06;22.00;91.60
36424;DHT22;22458;45.328;9.514;2023-06-05T06:38:32;22.00;91.50
36424;DHT22;22458;45.328;9.514;2023-06-05T06:40:58;22.00;91.50
36424;DHT22;22458;45.328;9.514;2023-06-05T06:43:25;22.10;91.60
36424;DHT22;22458;45.328;9.514;2023-06-05T06:45:56;22.10;91.60
36424;DHT22;22458;45.328;9.514;2023-06-05T06:48:22;22.00;91.60
36424;DHT22;22458;45.328;9.514;2023-06-05T06:50:48;22.10;91.60
36424;DHT22;22458;45.328;9.514;2023-06-05T06:53:14;22.10;91.60
36424;DHT22;22458;45.328;9.514;2023-06-05T06:55:39;22.10;91.50
36424;DHT22;22458;45.328;9.514;2023-06-05T06:58:05;22.10;91.60
36424;DHT22;22458;45.328;9.514;2023-06-05T07:00:31;22.10;91.20
36424;DHT22;22458;45.328;9.514;2023-06-05T07:02:56;22.10;91.20
36424;DHT22;22458;45.328;9.514;2023-06-05T07:05:22;22.10;91.20
36424;DHT22;22458;45.328;9.514;2023-06-05T07:07:48;22.20;91.20
36424;DHT22;22458;45.328;9.514;2023-06-05T07:10:14;22.20;91.20
36424;DHT22;22458;45.328;9.514;2023-06-05T07:12:40;22.20;91.10
36424;DHT22;22458;45.328;9.514;2023-06-05T07:15:06;22.10;91.10
36424;DHT22;22458;45.328;9.514;2023-06-05T07:17:32;22.10;91.00
36424;DHT22;22458;45.328;9.514;2023-06-05T07:19:57;22.10;91.10
36424;DHT22;22458;45.328;9.514;2023-06-05T07:22:23;22.00;91.10
36424;DHT22;22458;45.328;9.514;2023-06-05T07:24:54;22.00;91.10
36424;DHT22;22458;45.328;9.514;2023-06-05T07:27:20;22.00;91.10
36424;DHT22;22458;45.328;9.514;2023-06-05T07:29:46;22.00;90.90
36424;DHT22;22458;45.328;9.514;2023-06-05T07:32:12;22.00;90.90
36424;DHT22;22458;45.328;9.514;2023-06-05T07:34:38;22.00;91.00
36424;DHT22;22458;45.328;9.514;2023-06-05T07:37:04;22.00;91.00
36424;DHT22;22458;45.328;9.514;2023-06-05T07:39:33;22.00;91.00
36424;DHT22;22458;45.328;9.514;2023-06-05T07:41:59;21.90;91.10
36424;DHT22;22458;45.328;9.514;2023-06-05T07:44:24;22.00;91.10
36424;DHT22;22458;45.328;9.514;2023-06-05T07:46:51;22.00;91.00
36424;DHT22;22458;45.328;9.514;2023-06-05T07:49:17;22.00;90.90
36424;DHT22;22458;45.328;9.514;2023-06-05T07:51:44;22.10;90.90
36424;DHT22;22458;45.328;9.514;2023-06-05T07:54:13;22.10;90.70
36424;DHT22;22458;45.328;9.514;2023-06-05T07:56:39;22.20;90.60
36424;DHT22;22458;45.328;9.514;2023-06-05T07:59:06;22.30;90.50
36424;DHT22;22458;45.328;9.514;2023-06-05T08:01:33;22.30;90.50
36424;DHT22;22458;45.328;9.514;2023-06-05T08:04:03;22.20;90.70
36424;DHT22;22458;45.328;9.514;2023-06-05T08:06:29;22.20;90.70
36424;DHT22;22458;45.328;9.514;2023-06-05T08:08:56;22.30;90.60
36424;DHT22;22458;45.328;9.514;2023-06-05T08:11:21;22.40;90.60
36424;DHT22;22458;45.328;9.514;2023-06-05T08:13:47;22.40;90.50
36424;DHT22;22458;45.328;9.514;2023-06-05T08:16:13;22.50;90.40
36424;DHT22;22458;45.328;9.514;2023-06-05T08:18:41;22.60;90.30
36424;DHT22;22458;45.328;9.514;2023-06-05T08:21:07;22.60;90.20
36424;DHT22;22458;45.328;9.514;2023-06-05T08:23:33;22.50;90.30
36424;DHT22;22458;45.328;9.514;2023-06-05T08:25:59;22.60;90.30
36424;DHT22;22458;45.328;9.514;2023-06-05T08:28:25;22.70;90.20
36424;DHT22;22458;45.328;9.514;2023-06-05T08:30:50;22.70;90.10
36424;DHT22;22458;45.328;9.514;2023-06-05T08:33:19;22.80;90.10
36424;DHT22;22458;45.328;9.514;2023-06-05T08:35:45;22.90;90.00
36424;DHT22;22458;45.328;9.514;2023-06-05T08:38:11;22.90;90.00
36424;DHT22;22458;45.328;9.514;2023-06-05T08:40:38;22.90;90.10
36424;DHT22;22458;45.328;9.514;2023-06-05T08:43:04;23.00;90.00
36424;DHT22;22458;45.328;9.514;2023-06-05T08:45:33;22.90;89.60
36424;DHT22;22458;45.328;9.514;2023-06-05T08:48:00;22.90;89.60
36424;DHT22;22458;45.328;9.514;2023-06-05T08:50:29;22.90;90.00
36424;DHT22;22458;45.328;9.514;2023-06-05T08:52:59;23.00;89.40
36424;DHT22;22458;45.328;9.514;2023-06-05T08:55:26;23.00;89.30
36424;DHT22;22458;45.328;9.514;2023-06-05T08:57:52;23.00;89.00
36424;DHT22;22458;45.328;9.514;2023-06-05T09:00:18;23.00;88.70
36424;DHT22;22458;45.328;9.514;2023-06-05T09:02:44;23.10;88.50
36424;DHT22;22458;45.328;9.514;2023-06-05T09:05:13;23.00;88.70
36424;DHT22;22458;45.328;9.514;2023-06-05T09:07:38;23.00;88.60
36424;DHT22;22458;45.328;9.514;2023-06-05T09:10:22;23.10;88.20
36424;DHT22;22458;45.328;9.514;2023-06-05T09:12:57;23.10;87.90
36424;DHT22;22458;45.328;9.514;2023-06-05T09:15:25;23.10;87.90
36424;DHT22;22458;45.328;9.514;2023-06-05T09:18:11;23.20;88.00
36424;DHT22;22458;45.328;9.514;2023-06-05T09:20:39;23.20;88.40
36424;DHT22;22458;45.328;9.514;2023-06-05T09:23:21;23.20;87.70
36424;DHT22;22458;45.328;9.514;2023-06-05T09:25:52;23.20;87.70
36424;DHT22;22458;45.328;9.514;2023-06-05T09:28:19;23.20;87.80
36424;DHT22;22458;45.328;9.514;2023-06-05T09:31:04;23.20;87.90
36424;DHT22;22458;45.328;9.514;2023-06-05T09:33:31;23.20;87.90
36424;DHT22;22458;45.328;9.514;2023-06-05T09:36:11;23.20;88.20
36424;DHT22;22458;45.328;9.514;2023-06-05T09:38:38;23.30;88.20
36424;DHT22;22458;45.328;9.514;2023-06-05T09:41:12;23.40;88.30
36424;DHT22;22458;45.328;9.514;2023-06-05T09:43:40;23.50;88.00
36424;DHT22;22458;45.328;9.514;2023-06-05T09:46:10;23.60;87.90
36424;DHT22;22458;45.328;9.514;2023-06-05T09:48:37;23.70;87.60
36424;DHT22;22458;45.328;9.514;2023-06-05T09:51:12;23.70;87.10
36424;DHT22;22458;45.328;9.514;2023-06-05T09:53:45;23.70;86.80
36424;DHT22;22458;45.328;9.514;2023-06-05T09:56:15;23.70;87.30
36424;DHT22;22458;45.328;9.514;2023-06-05T09:58:44;23.60;87.80
36424;DHT22;22458;45.328;9.514;2023-06-05T10:01:18;23.50;88.40
36424;DHT22;22458;45.328;9.514;2023-06-05T10:04:00;23.40;89.20
36424;DHT22;22458;45.328;9.514;2023-06-05T10:06:29;23.30;89.80
36424;DHT22;22458;45.328;9.514;2023-06-05T10:08:55;23.20;90.00
36424;DHT22;22458;45.328;9.514;2023-06-05T10:11:23;23.20;90.00
36424;DHT22;22458;45.328;9.514;2023-06-05T10:13:50;23.20;90.00
36424;DHT22;22458;45.328;9.514;2023-06-05T10:16:17;23.10;89.90
36424;DHT22;22458;45.328;9.514;2023-06-05T10:18:47;23.00;89.90
36424;DHT22;22458;45.328;9.514;2023-06-05T10:21:17;23.00;90.00
36424;DHT22;22458;45.328;9.514;2023-06-05T10:23:55;22.90;90.00
36424;DHT22;22458;45.328;9.514;2023-06-05T10:31:58;22.80;90.20
36424;DHT22;22458;45.328;9.514;2023-06-05T10:34:45;22.80;90.20
36424;DHT22;22458;45.328;9.514;2023-06-05T10:37:46;22.90;90.10
36424;DHT22;22458;45.328;9.514;2023-06-05T10:40:15;22.90;90.00
36424;DHT22;22458;45.328;9.514;2023-06-05T10:42:42;22.90;90.00
36424;DHT22;22458;45.328;9.514;2023-06-05T10:45:08;23.00;89.90
36424;DHT22;22458;45.328;9.514;2023-06-05T10:52:46;23.40;89.70
36424;DHT22;22458;45.328;9.514;2023-06-05T10:55:12;23.50;89.70
36424;DHT22;22458;45.328;9.514;2023-06-05T10:58:07;23.80;89.20
36424;DHT22;22458;45.328;9.514;2023-06-05T11:00:34;23.90;88.50
36424;DHT22;22458;45.328;9.514;2023-06-05T11:03:01;24.00;88.10
36424;DHT22;22458;45.328;9.514;2023-06-05T11:05:27;24.10;87.60
36424;DHT22;22458;45.328;9.514;2023-06-05T11:08:14;24.10;87.30
36424;DHT22;22458;45.328;9.514;2023-06-05T11:13:53;24.20;86.60
36424;DHT22;22458;45.328;9.514;2023-06-05T11:16:26;24.20;86.10
36424;DHT22;22458;45.328;9.514;2023-06-05T11:18:51;24.30;85.60
36424;DHT22;22458;45.328;9.514;2023-06-05T11:21:19;24.20;85.40
36424;DHT22;22458;45.328;9.514;2023-06-05T11:24:14;24.30;85.30
36424;DHT22;22458;45.328;9.514;2023-06-05T11:26:43;24.30;84.80
36424;DHT22;22458;45.328;9.514;2023-06-05T11:29:14;24.40;84.70
36424;DHT22;22458;45.328;9.514;2023-06-05T11:31:42;24.50;84.50
36424;DHT22;22458;45.328;9.514;2023-06-05T11:34:12;24.60;84.30
36424;DHT22;22458;45.328;9.514;2023-06-05T11:36:39;24.80;83.80
36424;DHT22;22458;45.328;9.514;2023-06-05T11:39:05;24.90;83.20
36424;DHT22;22458;45.328;9.514;2023-06-05T11:41:31;24.90;82.50
36424;DHT22;22458;45.328;9.514;2023-06-05T11:43:57;24.90;82.50
36424;DHT22;22458;45.328;9.514;2023-06-05T11:46:37;24.80;82.30
36424;DHT22;22458;45.328;9.514;2023-06-05T11:49:03;24.80;82.10
36424;DHT22;22458;45.328;9.514;2023-06-05T11:51:36;24.80;81.90
36424;DHT22;22458;45.328;9.514;2023-06-05T11:54:03;24.70;81.60
36424;DHT22;22458;45.328;9.514;2023-06-05T11:56:31;24.70;81.60
36424;DHT22;22458;45.328;9.514;2023-06-05T11:58:57;24.50;81.70
36424;DHT22;22458;45.328;9.514;2023-06-05T12:01:23;24.40;81.70
36424;DHT22;22458;45.328;9.514;2023-06-05T12:04:04;24.40;82.10
36424;DHT22;22458;45.328;9.514;2023-06-05T12:06:30;24.40;82.10
36424;DHT22;22458;45.328;9.514;2023-06-05T12:11:35;24.60;82.10
36424;DHT22;22458;45.328;9.514;2023-06-05T12:14:00;24.70;81.80
36424;DHT22;22458;45.328;9.514;2023-06-05T12:16:34;24.70;81.50
36424;DHT22;22458;45.328;9.514;2023-06-05T12:19:02;24.80;81.40
36424;DHT22;22458;45.328;9.514;2023-06-05T12:21:28;24.70;81.30
36424;DHT22;22458;45.328;9.514;2023-06-05T12:24:02;24.70;81.30
36424;DHT22;22458;45.328;9.514;2023-06-05T12:26:28;24.80;81.40
36424;DHT22;22458;45.328;9.514;2023-06-05T12:29:05;24.80;81.10
36424;DHT22;22458;45.328;9.514;2023-06-05T12:31:35;24.90;81.00
36424;DHT22;22458;45.328;9.514;2023-06-05T12:34:02;24.90;81.20
36424;DHT22;22458;45.328;9.514;2023-06-05T12:36:29;25.00;80.90
36424;DHT22;22458;45.328;9.514;2023-06-05T12:38:55;25.10;80.70
36424;DHT22;22458;45.328;9.514;2023-06-05T12:41:21;25.10;80.40
36424;DHT22;22458;45.328;9.514;2023-06-05T12:43:58;25.20;80.10
36424;DHT22;22458;45.328;9.514;2023-06-05T12:46:25;25.30;80.10
36424;DHT22;22458;45.328;9.514;2023-06-05T12:48:50;25.40;80.20
36424;DHT22;22458;45.328;9.514;2023-06-05T12:51:17;25.60;79.60
36424;DHT22;22458;45.328;9.514;2023-06-05T12:53:43;25.70;79.00
36424;DHT22;22458;45.328;9.514;2023-06-05T12:56:09;25.70;78.80
36424;DHT22;22458;45.328;9.514;2023-06-05T12:58:36;25.80;78.60
36424;DHT22;22458;45.328;9.514;2023-06-05T13:01:02;25.80;78.30
36424;DHT22;22458;45.328;9.514;2023-06-05T13:03:29;25.90;78.10
36424;DHT22;22458;45.328;9.514;2023-06-05T13:05:55;25.90;77.70
36424;DHT22;22458;45.328;9.514;2023-06-05T13:08:20;26.00;77.20
36424;DHT22;22458;45.328;9.514;2023-06-05T13:10:46;26.10;77.00
36424;DHT22;22458;45.328;9.514;2023-06-05T13:13:12;26.20;76.90
36424;DHT22;22458;45.328;9.514;2023-06-05T13:15:37;26.20;76.70
36424;DHT22;22458;45.328;9.514;2023-06-05T13:18:03;26.30;76.50
36424;DHT22;22458;45.328;9.514;2023-06-05T13:20:29;26.40;76.30
36424;DHT22;22458;45.328;9.514;2023-06-05T13:22:54;26.50;76.10
36424;DHT22;22458;45.328;9.514;2023-06-05T13:25:20;26.60;76.10
36424;DHT22;22458;45.328;9.514;2023-06-05T13:27:46;26.70;75.60
36424;DHT22;22458;45.328;9.514;2023-06-05T13:30:12;26.70;75.30
36424;DHT22;22458;45.328;9.514;2023-06-05T13:32:37;26.80;75.80
36424;DHT22;22458;45.328;9.514;2023-06-05T13:35:07;26.80;75.90
36424;DHT22;22458;45.328;9.514;2023-06-05T13:37:33;26.90;75.70
36424;DHT22;22458;45.328;9.514;2023-06-05T13:39:59;26.80;75.80
36424;DHT22;22458;45.328;9.514;2023-06-05T13:42:24;26.90;75.60
36424;DHT22;22458;45.328;9.514;2023-06-05T13:44:50;27.00;75.80
36424;DHT22;22458;45.328;9.514;2023-06-05T13:47:16;26.90;75.50
36424;DHT22;22458;45.328;9.514;2023-06-05T13:49:42;26.90;75.50
36424;DHT22;22458;45.328;9.514;2023-06-05T13:52:08;26.90;75.00
36424;DHT22;22458;45.328;9.514;2023-06-05T13:54:33;26.90;74.60
36424;DHT22;22458;45.328;9.514;2023-06-05T13:56:59;26.80;74.00
36424;DHT22;22458;45.328;9.514;2023-06-05T13:59:25;26.80;73.70
36424;DHT22;22458;45.328;9.514;2023-06-05T14:01:51;26.80;73.40
36424;DHT22;22458;45.328;9.514;2023-06-05T14:04:16;26.60;73.20
36424;DHT22;22458;45.328;9.514;2023-06-05T14:06:42;26.50;73.20
36424;DHT22;22458;45.328;9.514;2023-06-05T14:09:08;26.50;73.20
36424;DHT22;22458;45.328;9.514;2023-06-05T14:11:34;26.50;72.70
36424;DHT22;22458;45.328;9.514;2023-06-05T14:14:00;26.50;72.70
36424;DHT22;22458;45.328;9.514;2023-06-05T14:16:27;26.60;72.60
36424;DHT22;22458;45.328;9.514;2023-06-05T14:18:52;26.70;72.20
36424;DHT22;22458;45.328;9.514;2023-06-05T14:21:18;26.80;71.90
36424;DHT22;22458;45.328;9.514;2023-06-05T14:23:44;26.90;71.30
36424;DHT22;22458;45.328;9.514;2023-06-05T14:26:09;26.90;70.90
36424;DHT22;22458;45.328;9.514;2023-06-05T14:28:36;26.90;70.70
36424;DHT22;22458;45.328;9.514;2023-06-05T14:31:02;27.00;70.80
36424;DHT22;22458;45.328;9.514;2023-06-05T14:33:28;27.10;70.90
36424;DHT22;22458;45.328;9.514;2023-06-05T14:35:54;27.10;71.00
36424;DHT22;22458;45.328;9.514;2023-06-05T14:38:20;27.20;71.10
36424;DHT22;22458;45.328;9.514;2023-06-05T14:40:46;27.30;70.90
36424;DHT22;22458;45.328;9.514;2023-06-05T14:43:15;27.20;70.60
36424;DHT22;22458;45.328;9.514;2023-06-05T14:45:41;27.20;70.70
36424;DHT22;22458;45.328;9.514;2023-06-05T14:48:08;27.10;70.80
36424;DHT22;22458;45.328;9.514;2023-06-05T14:50:36;27.00;70.90
36424;DHT22;22458;45.328;9.514;2023-06-05T14:53:02;26.90;71.00
36424;DHT22;22458;45.328;9.514;2023-06-05T14:55:27;26.90;71.20
36424;DHT22;22458;45.328;9.514;2023-06-05T14:57:53;26.90;71.20
36424;DHT22;22458;45.328;9.514;2023-06-05T15:00:19;26.70;71.20
36424;DHT22;22458;45.328;9.514;2023-06-05T15:02:45;26.70;71.20
36424;DHT22;22458;45.328;9.514;2023-06-05T15:05:10;26.70;71.60
36424;DHT22;22458;45.328;9.514;2023-06-05T15:07:40;26.60;71.80
36424;DHT22;22458;45.328;9.514;2023-06-05T15:10:07;26.70;71.90
36424;DHT22;22458;45.328;9.514;2023-06-05T15:12:36;26.70;71.90
36424;DHT22;22458;45.328;9.514;2023-06-05T15:15:05;26.70;72.00
36424;DHT22;22458;45.328;9.514;2023-06-05T15:17:31;26.70;72.10
36424;DHT22;22458;45.328;9.514;2023-06-05T15:19:57;26.70;72.10
36424;DHT22;22458;45.328;9.514;2023-06-05T15:22:23;26.60;71.80
36424;DHT22;22458;45.328;9.514;2023-06-05T15:24:48;26.60;71.70
36424;DHT22;22458;45.328;9.514;2023-06-05T15:27:14;26.50;71.90
36424;DHT22;22458;45.328;9.514;2023-06-05T15:29:40;26.50;71.90
36424;DHT22;22458;45.328;9.514;2023-06-05T15:32:06;26.40;71.80
36424;DHT22;22458;45.328;9.514;2023-06-05T15:34:31;26.40;71.90
36424;DHT22;22458;45.328;9.514;2023-06-05T15:36:57;26.50;72.00
36424;DHT22;22458;45.328;9.514;2023-06-05T15:39:23;26.50;72.20
36424;DHT22;22458;45.328;9.514;2023-06-05T15:41:49;26.50;72.20
36424;DHT22;22458;45.328;9.514;2023-06-05T15:44:16;26.50;72.10
36424;DHT22;22458;45.328;9.514;2023-06-05T15:46:41;26.40;71.90
36424;DHT22;22458;45.328;9.514;2023-06-05T15:49:07;26.40;71.90
36424;DHT22;22458;45.328;9.514;2023-06-05T15:51:33;26.40;71.80
36424;DHT22;22458;45.328;9.514;2023-06-05T15:53:59;26.40;72.50